KEVW/EVW METAR and TAF weather

Enter ICAO airport designator
Station Type Date Time Source
KEVW METAR 2018/12/13 21:53 UTC NOAA

KEVW 132153Z AUTO 22010KT 10SM CLR M06/M11 A3036 RMK AO2 SLP339 T10561111


Station Type Date Time Source
KEVW Decoded METAR 2018/12/13 21:53 UTC NOAA

EVANSTON-UINTA COUNTY FIELD, WY, United States (KEVW) 41-16N 111-02W 2177M
Dec 13, 2018 - 04:53 PM EST / 2018.12.13 2153 UTC
Wind: from the SW (220 degrees) at 12 MPH (10 KT):0
Visibility: 10 mile(s):0
Sky conditions: clear
Temperature: 21.9 F (-5.6 C)
Windchill: 10 F (-12 C):1
Dew Point: 12.0 F (-11.1 C)
Relative Humidity: 65%
Pressure (altimeter): 30.36 in. Hg (1028 hPa)
ob: KEVW 132153Z AUTO 22010KT 10SM CLR M06/M11 A3036 RMK AO2 SLP339 T10561111
cycle: 22

Station Type Date Time Source
KEVW TAF 2018/12/13 18:33 UTC NOAA

TAF KEVW 131728Z 1318/1418 23007KT P6SM SCT200
FM140700 16006KT P6SM SCT140 SCT200


Example: see airport list